createdAt,value
2018-09-06T04:00:11.262Z,14.63
2018-09-06T04:02:39.331Z,17.07
2018-09-06T04:05:07.419Z,16.97
2018-09-06T04:07:35.480Z,18.63
2018-09-06T04:10:03.543Z,17.93
2018-09-06T04:12:31.617Z,17.77
2018-09-06T04:14:59.671Z,23.47
2018-09-06T04:17:27.776Z,17.80
2018-09-06T04:19:55.839Z,16.77
2018-09-06T04:22:25.610Z,15.20
2018-09-06T04:24:53.776Z,13.63
2018-09-06T04:27:22.097Z,14.27
2018-09-06T04:29:50.271Z,12.55
2018-09-06T04:32:18.430Z,13.07
2018-09-06T04:34:46.500Z,14.57
2018-09-06T04:37:14.646Z,14.07
2018-09-06T04:39:42.752Z,13.90
2018-09-06T04:42:10.819Z,15.77
2018-09-06T04:44:40.592Z,18.23
2018-09-06T04:47:08.663Z,21.17
2018-09-06T04:49:36.744Z,15.93
2018-09-06T04:52:04.856Z,14.93
2018-09-06T04:54:32.959Z,14.37
2018-09-06T04:57:01.029Z,16.27
2018-09-06T04:59:29.142Z,16.33
2018-09-06T05:01:57.227Z,16.32
2018-09-06T05:04:25.382Z,16.67
2018-09-06T05:06:54.568Z,17.45
2018-09-06T05:09:22.643Z,17.80
2018-09-06T05:11:52.928Z,16.57
2018-09-06T05:14:21.012Z,17.27
2018-09-06T05:16:49.107Z,17.10
2018-09-06T05:19:17.216Z,18.95
2018-09-06T05:21:45.293Z,18.80
2018-09-06T05:24:13.356Z,19.05
2018-09-06T05:26:41.424Z,18.37
2018-09-06T05:29:09.624Z,18.70
2018-09-06T05:31:37.696Z,19.40
2018-09-06T05:34:05.765Z,19.93
2018-09-06T05:36:33.995Z,20.13
2018-09-06T05:39:03.404Z,19.40
2018-09-06T05:41:31.504Z,19.02
2018-09-06T05:44:03.578Z,19.17
2018-09-06T05:46:31.632Z,18.82
2018-09-06T05:48:59.691Z,18.57
2018-09-06T05:51:27.819Z,18.03
2018-09-06T05:53:55.872Z,18.00
2018-09-06T05:56:24.059Z,17.60
2018-09-06T05:58:52.112Z,17.80
2018-09-06T06:01:20.171Z,17.93
2018-09-06T06:04:00.739Z,17.87
2018-09-06T06:06:30.959Z,15.37
2018-09-06T06:08:59.021Z,16.87
2018-09-06T06:11:27.099Z,15.60
2018-09-06T06:13:55.143Z,17.10
2018-09-06T06:16:23.212Z,15.23
2018-09-06T06:18:51.274Z,15.60
2018-09-06T06:21:19.395Z,15.23
2018-09-06T06:23:47.467Z,18.00
2018-09-06T06:26:15.519Z,19.50
2018-09-06T06:28:43.583Z,19.37
2018-09-06T06:31:11.649Z,19.42
2018-09-06T06:33:40.356Z,19.67
2018-09-06T06:36:08.429Z,19.43
2018-09-06T06:38:36.484Z,18.63
2018-09-06T06:41:05.555Z,19.93
2018-09-06T06:43:33.671Z,21.17
2018-09-06T06:46:03.902Z,19.57
2018-09-06T06:48:31.955Z,19.03
2018-09-06T06:51:00.023Z,19.57
2018-09-06T06:53:32.527Z,18.40
2018-09-06T06:56:00.597Z,16.43
2018-09-06T06:58:28.679Z,16.50
2018-09-06T07:00:56.782Z,17.00
2018-09-06T07:03:25.849Z,16.63
2018-09-06T07:05:53.888Z,17.23
2018-09-06T07:08:21.947Z,16.60
2018-09-06T07:10:53.647Z,16.17
2018-09-06T07:13:21.715Z,15.77
2018-09-06T07:15:49.779Z,14.37
2018-09-06T07:18:17.888Z,14.27
2018-09-06T07:20:46.790Z,15.72
2018-09-06T07:23:14.847Z,16.70
2018-09-06T07:25:49.027Z,15.32
2018-09-06T07:28:17.092Z,15.03
2018-09-06T07:30:45.153Z,14.00
2018-09-06T07:33:13.203Z,14.07
2018-09-06T07:35:41.286Z,14.63
2018-09-06T07:38:09.339Z,14.50
2018-09-06T07:40:37.401Z,14.73
2018-09-06T07:43:06.662Z,13.40
2018-09-06T07:45:34.720Z,13.23
2018-09-06T07:48:02.774Z,15.80
2018-09-06T07:50:30.839Z,14.63
2018-09-06T07:53:00.444Z,13.67
2018-09-06T07:55:28.516Z,14.78
2018-09-06T07:57:59.921Z,15.43
2018-09-06T08:00:28.037Z,16.67
2018-09-06T08:02:56.052Z,16.43
2018-09-06T08:05:24.111Z,13.57
2018-09-06T08:07:52.176Z,16.03
2018-09-06T08:10:45.255Z,14.98
2018-09-06T08:13:13.316Z,15.63
2018-09-06T08:15:41.380Z,16.47
2018-09-06T08:18:09.459Z,16.70
2018-09-06T08:20:37.564Z,14.95
2018-09-06T08:23:05.656Z,15.03
2018-09-06T08:25:34.271Z,13.48
2018-09-06T08:28:02.382Z,15.73
2018-09-06T08:30:31.490Z,15.20
2018-09-06T08:33:10.135Z,14.93
2018-09-06T08:35:38.199Z,15.07
2018-09-06T08:38:08.407Z,15.67
2018-09-06T08:40:37.611Z,14.60
2018-09-06T08:43:06.815Z,13.87
2018-09-06T08:45:34.979Z,13.97
2018-09-06T08:48:03.160Z,13.30
2018-09-06T08:50:41.396Z,14.67
2018-09-06T08:53:09.462Z,15.83
2018-09-06T08:55:37.515Z,14.80
2018-09-06T08:58:05.584Z,15.70
2018-09-06T09:00:36.632Z,16.33
2018-09-06T09:03:05.404Z,17.73
2018-09-06T09:05:33.434Z,16.10
2018-09-06T09:08:01.483Z,15.53
2018-09-06T09:10:31.846Z,14.57
2018-09-06T09:13:12.861Z,16.50
2018-09-06T09:15:41.028Z,15.23
2018-09-06T09:18:09.472Z,16.37
2018-09-06T09:20:37.551Z,16.23
2018-09-06T09:23:05.647Z,17.43
2018-09-06T09:25:33.739Z,16.12
2018-09-06T09:28:01.759Z,16.53
2018-09-06T09:30:29.847Z,14.93
2018-09-06T09:32:57.882Z,14.27
2018-09-06T09:35:25.943Z,14.00
2018-09-06T09:37:56.215Z,13.43
2018-09-06T09:40:27.375Z,14.23
